sensor_id;sensor_type;location;lat;lon;timestamp;pressure;altitude;pressure_sealevel;temperature;humidity
45285;BME280;31026;43.780;25.948;2023-05-23T00:00:22;100579.72;;;20.10;65.81
45285;BME280;31026;43.780;25.948;2023-05-23T00:02:50;100581.13;;;20.04;66.25
45285;BME280;31026;43.780;25.948;2023-05-23T00:05:19;100585.53;;;20.05;65.92
45285;BME280;31026;43.780;25.948;2023-05-23T00:07:47;100595.13;;;20.08;65.57
45285;BME280;31026;43.780;25.948;2023-05-23T00:10:18;100587.78;;;20.00;65.97
45285;BME280;31026;43.780;25.948;2023-05-23T00:12:46;100595.00;;;20.00;66.08
45285;BME280;31026;43.780;25.948;2023-05-23T00:15:15;100594.59;;;19.95;66.37
45285;BME280;31026;43.780;25.948;2023-05-23T00:17:43;100595.88;;;19.91;66.53
45285;BME280;31026;43.780;25.948;2023-05-23T00:20:11;100574.97;;;19.94;66.29
45285;BME280;31026;43.780;25.948;2023-05-23T00:22:41;100584.00;;;19.93;66.55
45285;BME280;31026;43.780;25.948;2023-05-23T00:25:12;100590.22;;;19.94;66.26
45285;BME280;31026;43.780;25.948;2023-05-23T00:27:43;100593.31;;;19.89;66.81
45285;BME280;31026;43.780;25.948;2023-05-23T00:30:11;100594.44;;;19.96;66.11
45285;BME280;31026;43.780;25.948;2023-05-23T00:32:40;100589.81;;;19.89;66.95
45285;BME280;31026;43.780;25.948;2023-05-23T00:35:08;100593.31;;;19.89;66.73
45285;BME280;31026;43.780;25.948;2023-05-23T00:37:36;100591.34;;;19.91;66.34
45285;BME280;31026;43.780;25.948;2023-05-23T00:40:05;100605.47;;;19.93;66.18
45285;BME280;31026;43.780;25.948;2023-05-23T00:42:34;100593.50;;;19.88;66.76
45285;BME280;31026;43.780;25.948;2023-05-23T00:45:05;100600.09;;;19.93;66.13
45285;BME280;31026;43.780;25.948;2023-05-23T00:47:34;100594.34;;;19.88;66.75
45285;BME280;31026;43.780;25.948;2023-05-23T00:50:02;100605.22;;;19.86;66.79
45285;BME280;31026;43.780;25.948;2023-05-23T00:52:31;100596.56;;;19.93;66.28
45285;BME280;31026;43.780;25.948;2023-05-23T00:55:00;100584.88;;;19.94;66.40
45285;BME280;31026;43.780;25.948;2023-05-23T00:57:28;100599.50;;;19.99;66.14
45285;BME280;31026;43.780;25.948;2023-05-23T00:59:58;100576.06;;;20.01;65.83
45285;BME280;31026;43.780;25.948;2023-05-23T01:02:30;100601.06;;;20.02;65.78
45285;BME280;31026;43.780;25.948;2023-05-23T01:05:00;100587.66;;;20.02;66.14
45285;BME280;31026;43.780;25.948;2023-05-23T01:07:29;100595.28;;;19.97;66.29
45285;BME280;31026;43.780;25.948;2023-05-23T01:09:57;100594.91;;;19.92;66.06
45285;BME280;31026;43.780;25.948;2023-05-23T01:12:27;100592.31;;;20.00;66.05
45285;BME280;31026;43.780;25.948;2023-05-23T01:14:58;100575.53;;;19.98;65.87
45285;BME280;31026;43.780;25.948;2023-05-23T01:17:38;100584.28;;;20.00;66.04
45285;BME280;31026;43.780;25.948;2023-05-23T01:20:08;100577.06;;;20.00;65.55
45285;BME280;31026;43.780;25.948;2023-05-23T01:22:46;100588.94;;;19.98;66.22
45285;BME280;31026;43.780;25.948;2023-05-23T01:25:22;100596.56;;;20.02;66.19
45285;BME280;31026;43.780;25.948;2023-05-23T01:27:59;100599.09;;;20.04;65.83
45285;BME280;31026;43.780;25.948;2023-05-23T01:30:29;100598.53;;;20.00;65.80
45285;BME280;31026;43.780;25.948;2023-05-23T01:32:58;100592.03;;;20.03;65.74
45285;BME280;31026;43.780;25.948;2023-05-23T01:35:27;100602.75;;;20.03;65.90
45285;BME280;31026;43.780;25.948;2023-05-23T01:37:57;100584.69;;;19.95;65.90
45285;BME280;31026;43.780;25.948;2023-05-23T01:40:25;100588.78;;;19.99;65.69
45285;BME280;31026;43.780;25.948;2023-05-23T01:42:54;100586.09;;;19.99;66.06
45285;BME280;31026;43.780;25.948;2023-05-23T01:45:26;100593.63;;;19.96;65.92
45285;BME280;31026;43.780;25.948;2023-05-23T01:47:55;100597.00;;;19.98;65.92
45285;BME280;31026;43.780;25.948;2023-05-23T01:50:24;100582.88;;;19.96;65.65
45285;BME280;31026;43.780;25.948;2023-05-23T01:52:53;100599.69;;;19.98;65.88
45285;BME280;31026;43.780;25.948;2023-05-23T01:55:21;100628.63;;;19.94;66.14
45285;BME280;31026;43.780;25.948;2023-05-23T01:57:50;100591.91;;;19.95;66.16
45285;BME280;31026;43.780;25.948;2023-05-23T02:00:20;100604.63;;;19.93;66.15
45285;BME280;31026;43.780;25.948;2023-05-23T02:02:51;100595.59;;;19.94;65.89
45285;BME280;31026;43.780;25.948;2023-05-23T02:05:20;100600.66;;;19.97;66.01
45285;BME280;31026;43.780;25.948;2023-05-23T02:07:48;100591.22;;;19.93;65.61
45285;BME280;31026;43.780;25.948;2023-05-23T02:10:16;100595.59;;;19.94;66.06
45285;BME280;31026;43.780;25.948;2023-05-23T02:12:45;100595.59;;;19.94;65.92
45285;BME280;31026;43.780;25.948;2023-05-23T02:15:13;100603.09;;;19.90;65.74
45285;BME280;31026;43.780;25.948;2023-05-23T02:17:41;100594.19;;;19.90;65.96
45285;BME280;31026;43.780;25.948;2023-05-23T02:20:12;100603.22;;;19.89;66.13
45285;BME280;31026;43.780;25.948;2023-05-23T02:22:43;100602.97;;;19.82;66.10
45285;BME280;31026;43.780;25.948;2023-05-23T02:25:11;100605.91;;;19.89;65.74
45285;BME280;31026;43.780;25.948;2023-05-23T02:27:39;100608.59;;;19.89;65.67
45285;BME280;31026;43.780;25.948;2023-05-23T02:30:08;100605.78;;;19.90;65.66
45285;BME280;31026;43.780;25.948;2023-05-23T02:32:37;100608.31;;;19.92;65.48
45285;BME280;31026;43.780;25.948;2023-05-23T02:35:05;100598.88;;;19.88;65.63
45285;BME280;31026;43.780;25.948;2023-05-23T02:37:37;100594.19;;;19.90;65.88
45285;BME280;31026;43.780;25.948;2023-05-23T02:40:06;100597.41;;;19.93;65.92
45285;BME280;31026;43.780;25.948;2023-05-23T02:42:34;100606.88;;;19.97;65.87
45285;BME280;31026;43.780;25.948;2023-05-23T02:45:03;100595.75;;;19.92;65.91
45285;BME280;31026;43.780;25.948;2023-05-23T02:47:31;100596.28;;;19.96;65.91
45285;BME280;31026;43.780;25.948;2023-05-23T02:50:00;100608.00;;;19.95;65.67
45285;BME280;31026;43.780;25.948;2023-05-23T02:52:29;100608.84;;;19.95;65.51
45285;BME280;31026;43.780;25.948;2023-05-23T02:55:00;100609.84;;;19.94;65.93
45285;BME280;31026;43.780;25.948;2023-05-23T02:57:28;100610.56;;;19.96;65.69
45285;BME280;31026;43.780;25.948;2023-05-23T02:59:56;100597.59;;;19.92;65.57
45285;BME280;31026;43.780;25.948;2023-05-23T03:02:24;100609.03;;;19.94;65.64
45285;BME280;31026;43.780;25.948;2023-05-23T03:04:53;100616.50;;;19.90;65.63
45285;BME280;31026;43.780;25.948;2023-05-23T03:07:21;100611.69;;;19.94;65.46
45285;BME280;31026;43.780;25.948;2023-05-23T03:09:51;100623.72;;;19.90;65.64
45285;BME280;31026;43.780;25.948;2023-05-23T03:12:22;100624.41;;;19.92;65.80
45285;BME280;31026;43.780;25.948;2023-05-23T03:14:50;100626.94;;;19.93;65.53
45285;BME280;31026;43.780;25.948;2023-05-23T03:17:18;100638.22;;;19.97;65.39
45285;BME280;31026;43.780;25.948;2023-05-23T03:19:47;100615.38;;;19.93;65.49
45285;BME280;31026;43.780;25.948;2023-05-23T03:22:15;100621.88;;;19.90;65.95
45285;BME280;31026;43.780;25.948;2023-05-23T03:24:43;100622.72;;;19.91;65.89
45285;BME280;31026;43.780;25.948;2023-05-23T03:27:12;100624.13;;;19.95;65.82
45285;BME280;31026;43.780;25.948;2023-05-23T03:29:43;100625.41;;;19.91;65.78
45285;BME280;31026;43.780;25.948;2023-05-23T03:32:12;100633.44;;;19.91;65.77
45285;BME280;31026;43.780;25.948;2023-05-23T03:34:40;100616.50;;;19.90;65.75
45285;BME280;31026;43.780;25.948;2023-05-23T03:37:08;100623.03;;;19.88;65.97
45285;BME280;31026;43.780;25.948;2023-05-23T03:39:37;100644.19;;;19.91;65.43
45285;BME280;31026;43.780;25.948;2023-05-23T03:42:05;100641.22;;;19.94;65.54
45285;BME280;31026;43.780;25.948;2023-05-23T03:44:33;100659.72;;;19.87;66.03
45285;BME280;31026;43.780;25.948;2023-05-23T03:47:04;100645.03;;;19.91;65.71
45285;BME280;31026;43.780;25.948;2023-05-23T03:49:33;100642.91;;;19.95;65.70
45285;BME280;31026;43.780;25.948;2023-05-23T03:52:01;100652.81;;;19.94;65.43
45285;BME280;31026;43.780;25.948;2023-05-23T03:54:29;100636.28;;;19.89;65.51
45285;BME280;31026;43.780;25.948;2023-05-23T03:56:58;100647.28;;;19.96;65.37
45285;BME280;31026;43.780;25.948;2023-05-23T03:59:27;100646.72;;;19.92;65.59
45285;BME280;31026;43.780;25.948;2023-05-23T04:01:55;100650.13;;;19.94;65.53
45285;BME280;31026;43.780;25.948;2023-05-23T04:04:27;100642.34;;;19.91;65.60
45285;BME280;31026;43.780;25.948;2023-05-23T04:06:56;100652.22;;;19.91;65.72
45285;BME280;31026;43.780;25.948;2023-05-23T04:09:25;100656.63;;;19.92;65.87
45285;BME280;31026;43.780;25.948;2023-05-23T04:11:53;100658.44;;;19.81;66.34
45285;BME280;31026;43.780;25.948;2023-05-23T04:14:22;100656.91;;;19.89;65.76
45285;BME280;31026;43.780;25.948;2023-05-23T04:16:51;100657.03;;;19.87;65.73
45285;BME280;31026;43.780;25.948;2023-05-23T04:19:19;100654.66;;;19.94;65.82
45285;BME280;31026;43.780;25.948;2023-05-23T04:21:50;100667.38;;;19.82;65.93
45285;BME280;31026;43.780;25.948;2023-05-23T04:24:19;100669.06;;;19.83;65.99
45285;BME280;31026;43.780;25.948;2023-05-23T04:26:47;100672.16;;;19.78;66.60
45285;BME280;31026;43.780;25.948;2023-05-23T04:29:15;100677.81;;;19.75;66.68
45285;BME280;31026;43.780;25.948;2023-05-23T04:31:44;100668.34;;;19.71;66.45
45285;BME280;31026;43.780;25.948;2023-05-23T04:34:12;100672.97;;;19.69;66.65
45285;BME280;31026;43.780;25.948;2023-05-23T04:36:41;100676.97;;;19.75;66.13
45285;BME280;31026;43.780;25.948;2023-05-23T04:39:12;100668.78;;;19.76;66.59
45285;BME280;31026;43.780;25.948;2023-05-23T04:41:41;100688.84;;;19.72;66.68
45285;BME280;31026;43.780;25.948;2023-05-23T04:44:09;100683.75;;;19.79;66.32
45285;BME280;31026;43.780;25.948;2023-05-23T04:46:39;100678.47;;;19.67;66.55
45285;BME280;31026;43.780;25.948;2023-05-23T04:49:09;100681.50;;;19.74;66.63
45285;BME280;31026;43.780;25.948;2023-05-23T04:51:38;100684.31;;;19.82;66.39
45285;BME280;31026;43.780;25.948;2023-05-23T04:54:06;100693.91;;;19.95;65.96
45285;BME280;31026;43.780;25.948;2023-05-23T04:56:37;100678.09;;;19.92;66.00
45285;BME280;31026;43.780;25.948;2023-05-23T04:59:06;100677.22;;;19.91;65.93
45285;BME280;31026;43.780;25.948;2023-05-23T05:01:35;100682.19;;;19.86;66.22
45285;BME280;31026;43.780;25.948;2023-05-23T05:04:04;100678.78;;;19.94;66.32
45285;BME280;31026;43.780;25.948;2023-05-23T05:06:33;100672.84;;;20.00;66.11
45285;BME280;31026;43.780;25.948;2023-05-23T05:09:01;100681.03;;;20.08;65.85
45285;BME280;31026;43.780;25.948;2023-05-23T05:11:32;100681.41;;;20.13;65.39
45285;BME280;31026;43.780;25.948;2023-05-23T05:14:03;100681.13;;;20.16;65.44
45285;BME280;31026;43.780;25.948;2023-05-23T05:16:32;100687.78;;;20.12;65.65
45285;BME280;31026;43.780;25.948;2023-05-23T05:19:00;100672.53;;;20.13;65.58
45285;BME280;31026;43.780;25.948;2023-05-23T05:21:28;100663.78;;;20.11;65.40
45285;BME280;31026;43.780;25.948;2023-05-23T05:23:57;100681.47;;;20.03;65.77
45285;BME280;31026;43.780;25.948;2023-05-23T05:26:25;100669.00;;;20.12;65.89
45285;BME280;31026;43.780;25.948;2023-05-23T05:28:54;100666.19;;;20.14;65.68
45285;BME280;31026;43.780;25.948;2023-05-23T05:31:25;100658.81;;;20.16;65.45
45285;BME280;31026;43.780;25.948;2023-05-23T05:33:54;100662.22;;;20.18;65.47
45285;BME280;31026;43.780;25.948;2023-05-23T05:36:22;100661.91;;;20.21;65.74
45285;BME280;31026;43.780;25.948;2023-05-23T05:38:50;100654.28;;;20.16;65.43
45285;BME280;31026;43.780;25.948;2023-05-23T05:41:18;100660.78;;;20.23;65.55
45285;BME280;31026;43.780;25.948;2023-05-23T05:43:47;100675.44;;;20.29;65.13
45285;BME280;31026;43.780;25.948;2023-05-23T05:46:15;100659.31;;;20.29;65.56
45285;BME280;31026;43.780;25.948;2023-05-23T05:48:46;100671.53;;;20.23;65.40
45285;BME280;31026;43.780;25.948;2023-05-23T05:51:15;100673.31;;;20.33;65.55
45285;BME280;31026;43.780;25.948;2023-05-23T05:53:43;100673.31;;;20.33;65.53
45285;BME280;31026;43.780;25.948;2023-05-23T05:56:11;100671.09;;;20.18;65.80
45285;BME280;31026;43.780;25.948;2023-05-23T05:58:40;100661.34;;;20.17;65.86
45285;BME280;31026;43.780;25.948;2023-05-23T06:01:08;100674.91;;;20.25;65.79
45285;BME280;31026;43.780;25.948;2023-05-23T06:03:36;100672.91;;;20.37;65.44
45285;BME280;31026;43.780;25.948;2023-05-23T06:06:08;100663.09;;;20.46;65.29
45285;BME280;31026;43.780;25.948;2023-05-23T06:08:36;100667.63;;;20.45;65.11
45285;BME280;31026;43.780;25.948;2023-05-23T06:11:05;100666.94;;;20.43;65.46
45285;BME280;31026;43.780;25.948;2023-05-23T06:13:33;100663.84;;;20.29;65.57
45285;BME280;31026;43.780;25.948;2023-05-23T06:16:01;100673.19;;;20.24;65.69
45285;BME280;31026;43.780;25.948;2023-05-23T06:18:30;100662.78;;;20.21;66.04
45285;BME280;31026;43.780;25.948;2023-05-23T06:20:58;100669.56;;;20.16;66.30
45285;BME280;31026;43.780;25.948;2023-05-23T06:23:29;100673.22;;;20.15;65.87
45285;BME280;31026;43.780;25.948;2023-05-23T06:25:57;100681.56;;;20.21;65.89
45285;BME280;31026;43.780;25.948;2023-05-23T06:28:26;100664.91;;;20.08;66.12
45285;BME280;31026;43.780;25.948;2023-05-23T06:30:54;100662.44;;;20.34;65.85
45285;BME280;31026;43.780;25.948;2023-05-23T06:33:22;100660.63;;;20.15;66.34
45285;BME280;31026;43.780;25.948;2023-05-23T06:35:50;100660.53;;;20.07;66.69
45285;BME280;31026;43.780;25.948;2023-05-23T06:38:19;100666.47;;;20.01;66.63
45285;BME280;31026;43.780;25.948;2023-05-23T06:40:50;100671.44;;;19.96;66.83
45285;BME280;31026;43.780;25.948;2023-05-23T06:43:18;100666.00;;;20.15;66.26
45285;BME280;31026;43.780;25.948;2023-05-23T06:45:46;100655.63;;;19.93;66.87
45285;BME280;31026;43.780;25.948;2023-05-23T06:48:15;100661.00;;;19.93;67.02
45285;BME280;31026;43.780;25.948;2023-05-23T06:50:43;100639.06;;;20.07;66.65
45285;BME280;31026;43.780;25.948;2023-05-23T06:53:11;100658.25;;;20.12;66.24
45285;BME280;31026;43.780;25.948;2023-05-23T06:55:40;100648.94;;;20.16;66.50
45285;BME280;31026;43.780;25.948;2023-05-23T06:58:11;100639.63;;;20.11;66.64
45285;BME280;31026;43.780;25.948;2023-05-23T07:00:40;100653.06;;;20.01;66.84
45285;BME280;31026;43.780;25.948;2023-05-23T07:03:08;100628.63;;;20.04;67.01
45285;BME280;31026;43.780;25.948;2023-05-23T07:05:36;100636.84;;;19.93;67.49
45285;BME280;31026;43.780;25.948;2023-05-23T07:08:04;100639.41;;;19.84;67.63
45285;BME280;31026;43.780;25.948;2023-05-23T07:10:35;100639.66;;;19.91;67.22
45285;BME280;31026;43.780;25.948;2023-05-23T07:13:05;100639.81;;;19.90;67.47
45285;BME280;31026;43.780;25.948;2023-05-23T07:15:36;100628.09;;;19.91;67.01
45285;BME280;31026;43.780;25.948;2023-05-23T07:18:04;100647.59;;;19.83;67.60
45285;BME280;31026;43.780;25.948;2023-05-23T07:20:32;100639.94;;;19.98;67.65
45285;BME280;31026;43.780;25.948;2023-05-23T07:23:01;100630.59;;;20.02;66.97
45285;BME280;31026;43.780;25.948;2023-05-23T07:25:29;100627.03;;;20.11;66.85
45285;BME280;31026;43.780;25.948;2023-05-23T07:27:57;100630.19;;;19.97;67.40
45285;BME280;31026;43.780;25.948;2023-05-23T07:30:25;100620.34;;;19.88;67.46
45285;BME280;31026;43.780;25.948;2023-05-23T07:32:56;100634.72;;;19.86;67.38
45285;BME280;31026;43.780;25.948;2023-05-23T07:35:25;100642.78;;;19.86;67.61
45285;BME280;31026;43.780;25.948;2023-05-23T07:37:53;100640.53;;;19.92;67.44
45285;BME280;31026;43.780;25.948;2023-05-23T07:40:22;100625.69;;;19.88;67.40
45285;BME280;31026;43.780;25.948;2023-05-23T07:42:50;100622.72;;;19.91;67.74
45285;BME280;31026;43.780;25.948;2023-05-23T07:45:19;100628.09;;;19.91;67.64
45285;BME280;31026;43.780;25.948;2023-05-23T07:47:48;100620.28;;;19.97;67.66
45285;BME280;31026;43.780;25.948;2023-05-23T07:50:19;100636.47;;;20.15;67.02
45285;BME280;31026;43.780;25.948;2023-05-23T07:52:47;100632.66;;;20.27;66.12
45285;BME280;31026;43.780;25.948;2023-05-23T07:55:16;100640.13;;;20.34;66.06
45285;BME280;31026;43.780;25.948;2023-05-23T07:57:45;100633.88;;;20.33;66.53
45285;BME280;31026;43.780;25.948;2023-05-23T08:00:14;100626.47;;;20.45;65.60
45285;BME280;31026;43.780;25.948;2023-05-23T08:02:42;100626.28;;;20.56;65.61
45285;BME280;31026;43.780;25.948;2023-05-23T08:05:10;100629.66;;;20.31;66.46
45285;BME280;31026;43.780;25.948;2023-05-23T08:07:41;100618.13;;;20.48;65.86
45285;BME280;31026;43.780;25.948;2023-05-23T08:10:10;100631.41;;;20.50;65.58
45285;BME280;31026;43.780;25.948;2023-05-23T08:12:38;100606.44;;;20.39;65.92
45285;BME280;31026;43.780;25.948;2023-05-23T08:15:07;100623.06;;;20.15;66.92
45285;BME280;31026;43.780;25.948;2023-05-23T08:17:35;100620.63;;;20.32;66.37
45285;BME280;31026;43.780;25.948;2023-05-23T08:20:04;100609.97;;;20.02;67.42
45285;BME280;31026;43.780;25.948;2023-05-23T08:22:33;100610.31;;;19.90;67.80
45285;BME280;31026;43.780;25.948;2023-05-23T08:25:05;100609.03;;;19.94;67.32
45285;BME280;31026;43.780;25.948;2023-05-23T08:27:33;100606.19;;;19.85;67.73
45285;BME280;31026;43.780;25.948;2023-05-23T08:30:03;100602.97;;;19.82;68.31
45285;BME280;31026;43.780;25.948;2023-05-23T08:32:33;100605.66;;;19.82;67.78
45285;BME280;31026;43.780;25.948;2023-05-23T08:35:02;100610.56;;;19.86;68.00
45285;BME280;31026;43.780;25.948;2023-05-23T08:37:31;100589.66;;;19.90;68.12
45285;BME280;31026;43.780;25.948;2023-05-23T08:39:59;100590.22;;;19.94;68.09
45285;BME280;31026;43.780;25.948;2023-05-23T08:42:30;100588.06;;;20.35;66.68
45285;BME280;31026;43.780;25.948;2023-05-23T08:44:58;100589.75;;;20.45;66.28
45285;BME280;31026;43.780;25.948;2023-05-23T08:47:27;100589.69;;;20.55;65.52
45285;BME280;31026;43.780;25.948;2023-05-23T08:49:56;100592.16;;;20.39;66.06
45285;BME280;31026;43.780;25.948;2023-05-23T08:52:25;100608.09;;;20.13;66.84
45285;BME280;31026;43.780;25.948;2023-05-23T08:54:54;100587.00;;;20.27;66.95
45285;BME280;31026;43.780;25.948;2023-05-23T08:57:23;100586.69;;;20.31;66.66
45285;BME280;31026;43.780;25.948;2023-05-23T08:59:55;100597.31;;;20.22;66.99
45285;BME280;31026;43.780;25.948;2023-05-23T09:02:25;100573.91;;;20.42;65.96
45285;BME280;31026;43.780;25.948;2023-05-23T09:04:53;100582.81;;;20.43;66.39
45285;BME280;31026;43.780;25.948;2023-05-23T09:07:21;100585.59;;;20.23;66.84
45285;BME280;31026;43.780;25.948;2023-05-23T09:09:50;100578.88;;;20.10;66.90
45285;BME280;31026;43.780;25.948;2023-05-23T09:12:18;100584.50;;;20.16;67.06
45285;BME280;31026;43.780;25.948;2023-05-23T09:14:48;100580.00;;;20.07;67.23
45285;BME280;31026;43.780;25.948;2023-05-23T09:17:19;100576.03;;;20.11;66.73
45285;BME280;31026;43.780;25.948;2023-05-23T09:19:48;100579.72;;;20.10;67.40
45285;BME280;31026;43.780;25.948;2023-05-23T09:22:16;100574.81;;;19.96;67.35
45285;BME280;31026;43.780;25.948;2023-05-23T09:24:50;100579.59;;;20.02;67.54
45285;BME280;31026;43.780;25.948;2023-05-23T09:27:19;100586.66;;;20.03;67.13
45285;BME280;31026;43.780;25.948;2023-05-23T09:29:47;100581.41;;;20.01;67.71
45285;BME280;31026;43.780;25.948;2023-05-23T09:32:19;100576.38;;;19.98;67.80
45285;BME280;31026;43.780;25.948;2023-05-23T09:34:53;100569.88;;;19.91;67.51
45285;BME280;31026;43.780;25.948;2023-05-23T09:37:23;100563.41;;;19.94;67.69
45285;BME280;31026;43.780;25.948;2023-05-23T09:39:52;100552.78;;;19.92;67.85
45285;BME280;31026;43.780;25.948;2023-05-23T09:42:20;100556.03;;;19.96;67.66
45285;BME280;31026;43.780;25.948;2023-05-23T09:44:49;100552.66;;;19.94;67.49
45285;BME280;31026;43.780;25.948;2023-05-23T09:47:20;100558.56;;;19.97;67.36
45285;BME280;31026;43.780;25.948;2023-05-23T09:49:48;100563.22;;;19.95;67.52
45285;BME280;31026;43.780;25.948;2023-05-23T09:52:17;100565.91;;;19.95;67.69
45285;BME280;31026;43.780;25.948;2023-05-23T09:54:46;100554.25;;;20.14;67.21
45285;BME280;31026;43.780;25.948;2023-05-23T09:57:14;100556.25;;;20.12;67.36
45285;BME280;31026;43.780;25.948;2023-05-23T09:59:44;100547.09;;;20.33;66.84
45285;BME280;31026;43.780;25.948;2023-05-23T10:02:29;100545.09;;;20.35;66.44
45285;BME280;31026;43.780;25.948;2023-05-23T10:05:06;100546.25;;;20.32;66.81
45285;BME280;31026;43.780;25.948;2023-05-23T10:07:36;100537.75;;;20.37;66.50
45285;BME280;31026;43.780;25.948;2023-05-23T10:10:05;100558.28;;;20.28;66.52
45285;BME280;31026;43.780;25.948;2023-05-23T10:12:38;100539.41;;;20.48;65.99
45285;BME280;31026;43.780;25.948;2023-05-23T10:15:09;100549.78;;;20.33;66.61
45285;BME280;31026;43.780;25.948;2023-05-23T10:17:44;100545.09;;;20.35;66.39
45285;BME280;31026;43.780;25.948;2023-05-23T10:20:14;100545.75;;;20.19;66.66
45285;BME280;31026;43.780;25.948;2023-05-23T10:22:43;100546.00;;;19.98;67.72
45285;BME280;31026;43.780;25.948;2023-05-23T10:25:11;100554.91;;;19.89;67.60
45285;BME280;31026;43.780;25.948;2023-05-23T10:27:40;100545.91;;;19.90;67.58
45285;BME280;31026;43.780;25.948;2023-05-23T10:30:09;100540.91;;;19.95;67.88
45285;BME280;31026;43.780;25.948;2023-05-23T10:32:38;100533.19;;;19.92;67.64
45285;BME280;31026;43.780;25.948;2023-05-23T10:35:09;100532.06;;;19.84;68.19
45285;BME280;31026;43.780;25.948;2023-05-23T10:37:46;100529.78;;;19.90;67.93
45285;BME280;31026;43.780;25.948;2023-05-23T10:40:19;100542.66;;;19.86;68.02
45285;BME280;31026;43.780;25.948;2023-05-23T10:42:50;100537.69;;;19.81;67.82
45285;BME280;31026;43.780;25.948;2023-05-23T10:45:21;100529.38;;;19.84;68.31
45285;BME280;31026;43.780;25.948;2023-05-23T10:47:50;100523.28;;;19.92;68.04
45285;BME280;31026;43.780;25.948;2023-05-23T10:50:34;100517.34;;;19.89;67.89
45285;BME280;31026;43.780;25.948;2023-05-23T10:53:04;100528.38;;;19.85;68.23
45285;BME280;31026;43.780;25.948;2023-05-23T10:55:33;100512.44;;;19.84;68.23
45285;BME280;31026;43.780;25.948;2023-05-23T10:58:08;100515.47;;;19.99;67.48
45285;BME280;31026;43.780;25.948;2023-05-23T11:00:37;100494.25;;;20.05;67.64
45285;BME280;31026;43.780;25.948;2023-05-23T11:03:05;100504.03;;;19.97;67.75
45285;BME280;31026;43.780;25.948;2023-05-23T11:05:38;100510.16;;;20.17;66.93
45285;BME280;31026;43.780;25.948;2023-05-23T11:08:14;100530.25;;;20.13;67.33
45285;BME280;31026;43.780;25.948;2023-05-23T11:16:24;100512.50;;;20.30;66.31
45285;BME280;31026;43.780;25.948;2023-05-23T11:21:38;100497.56;;;20.17;66.85
45285;BME280;31026;43.780;25.948;2023-05-23T11:24:08;100514.59;;;20.08;67.65
45285;BME280;31026;43.780;25.948;2023-05-23T11:26:36;100506.72;;;19.97;67.88
45285;BME280;31026;43.780;25.948;2023-05-23T11:29:07;100507.41;;;19.99;67.64
45285;BME280;31026;43.780;25.948;2023-05-23T11:31:36;100492.22;;;19.90;68.03
45285;BME280;31026;43.780;25.948;2023-05-23T11:34:04;100505.88;;;19.96;67.87
45285;BME280;31026;43.780;25.948;2023-05-23T11:36:33;100502.19;;;20.25;67.13
45285;BME280;31026;43.780;25.948;2023-05-23T11:39:04;100490.84;;;20.31;66.38
45285;BME280;31026;43.780;25.948;2023-05-23T11:41:33;100488.13;;;20.13;67.14
45285;BME280;31026;43.780;25.948;2023-05-23T11:44:09;100483.56;;;20.23;66.85
45285;BME280;31026;43.780;25.948;2023-05-23T11:46:38;100483.03;;;20.20;67.08
45285;BME280;31026;43.780;25.948;2023-05-23T11:49:09;100488.03;;;20.05;67.62
45285;BME280;31026;43.780;25.948;2023-05-23T11:51:38;100483.34;;;20.07;67.59
45285;BME280;31026;43.780;25.948;2023-05-23T11:54:09;100479.19;;;19.95;67.38
45285;BME280;31026;43.780;25.948;2023-05-23T11:56:40;100471.72;;;19.89;68.24
45285;BME280;31026;43.780;25.948;2023-05-23T11:59:08;100468.50;;;19.85;68.29
45285;BME280;31026;43.780;25.948;2023-05-23T12:01:37;100474.69;;;19.85;67.93
45285;BME280;31026;43.780;25.948;2023-05-23T12:04:08;100468.63;;;19.83;68.08
45285;BME280;31026;43.780;25.948;2023-05-23T12:06:37;100467.94;;;19.81;68.29
45285;BME280;31026;43.780;25.948;2023-05-23T12:09:09;100473.41;;;20.17;67.12
45285;BME280;31026;43.780;25.948;2023-05-23T12:11:38;100473.16;;;20.11;67.17
45285;BME280;31026;43.780;25.948;2023-05-23T12:14:06;100473.25;;;20.19;67.41
45285;BME280;31026;43.780;25.948;2023-05-23T12:16:35;100472.78;;;20.05;67.31
45285;BME280;31026;43.780;25.948;2023-05-23T12:19:03;100472.84;;;19.96;67.96
45285;BME280;31026;43.780;25.948;2023-05-23T12:21:41;100460.84;;;20.18;67.31
45285;BME280;31026;43.780;25.948;2023-05-23T12:24:14;100444.59;;;20.19;67.26
45285;BME280;31026;43.780;25.948;2023-05-23T12:26:46;100445.88;;;20.33;66.49
45285;BME280;31026;43.780;25.948;2023-05-23T12:29:16;100449.16;;;20.09;67.17
45285;BME280;31026;43.780;25.948;2023-05-23T12:31:47;100448.00;;;19.94;67.68
45285;BME280;31026;43.780;25.948;2023-05-23T12:34:15;100435.28;;;19.96;67.81
45285;BME280;31026;43.780;25.948;2023-05-23T12:36:43;100445.03;;;19.87;67.84
45285;BME280;31026;43.780;25.948;2023-05-23T12:39:19;100442.50;;;19.85;68.06
45285;BME280;31026;43.780;25.948;2023-05-23T12:41:51;100448.91;;;20.02;67.92
45285;BME280;31026;43.780;25.948;2023-05-23T12:44:20;100439.34;;;20.00;67.76
45285;BME280;31026;43.780;25.948;2023-05-23T12:46:49;100437.75;;;20.25;66.65
45285;BME280;31026;43.780;25.948;2023-05-23T12:49:17;100429.00;;;20.23;66.98
45285;BME280;31026;43.780;25.948;2023-05-23T12:51:45;100440.84;;;20.30;66.59
45285;BME280;31026;43.780;25.948;2023-05-23T12:54:16;100434.31;;;20.33;66.46
45285;BME280;31026;43.780;25.948;2023-05-23T12:56:45;100431.34;;;20.36;66.66
45285;BME280;31026;43.780;25.948;2023-05-23T12:59:13;100430.66;;;20.34;66.69